createdAt,value
2022-12-25T00:01:25.413Z,2.86
2022-12-25T00:03:53.022Z,2.86
2022-12-25T00:06:20.251Z,2.84
2022-12-25T00:08:47.444Z,2.86
2022-12-25T00:11:17.632Z,2.87
2022-12-25T00:13:44.703Z,2.83
2022-12-25T00:16:25.724Z,2.83
2022-12-25T00:18:53.409Z,2.86
2022-12-25T00:21:21.551Z,2.88
2022-12-25T00:23:53.199Z,2.88
2022-12-25T00:26:20.368Z,2.90
2022-12-25T00:28:47.428Z,2.92
2022-12-25T00:31:18.727Z,2.93
2022-12-25T00:33:48.338Z,2.93
2022-12-25T00:36:18.102Z,2.95
2022-12-25T00:38:45.805Z,2.97
2022-12-25T00:41:15.685Z,3.00
2022-12-25T00:43:43.495Z,2.99
2022-12-25T00:46:13.799Z,3.02
2022-12-25T00:48:41.473Z,3.03
2022-12-25T00:51:11.875Z,3.02
2022-12-25T00:53:39.106Z,2.98
2022-12-25T00:56:07.679Z,2.99
2022-12-25T00:58:36.083Z,3.03
2022-12-25T01:01:06.968Z,3.06
2022-12-25T01:03:34.042Z,3.07
2022-12-25T01:06:04.533Z,3.06
2022-12-25T01:08:34.521Z,3.09
2022-12-25T01:11:07.570Z,3.11
2022-12-25T01:13:38.087Z,3.14
2022-12-25T01:16:12.470Z,3.13
2022-12-25T01:18:39.511Z,3.20
2022-12-25T01:21:17.893Z,3.21
2022-12-25T01:23:45.279Z,3.23
2022-12-25T01:26:13.954Z,3.15
2022-12-25T01:28:41.431Z,3.19
2022-12-25T01:31:14.125Z,3.21
2022-12-25T01:33:42.851Z,3.21
2022-12-25T01:36:21.896Z,3.16
2022-12-25T01:38:50.403Z,3.18
2022-12-25T01:41:20.098Z,3.20
2022-12-25T01:44:00.757Z,3.20
2022-12-25T01:46:28.269Z,3.22
2022-12-25T01:48:59.311Z,3.23
2022-12-25T01:51:33.315Z,3.23
2022-12-25T01:54:05.213Z,3.24
2022-12-25T01:56:34.136Z,3.23
2022-12-25T01:59:03.580Z,3.24
2022-12-25T02:01:30.975Z,3.20
2022-12-25T02:04:07.036Z,3.18
2022-12-25T02:06:35.400Z,3.19
2022-12-25T02:09:03.277Z,3.25
2022-12-25T02:11:48.702Z,3.21
2022-12-25T02:14:15.803Z,3.23
2022-12-25T02:16:58.347Z,3.23
2022-12-25T02:20:12.490Z,3.25
2022-12-25T02:22:59.967Z,3.26
2022-12-25T02:25:57.977Z,3.22
2022-12-25T02:29:10.063Z,3.20
2022-12-25T02:31:43.313Z,3.17
2022-12-25T02:34:54.419Z,3.14
2022-12-25T02:37:27.492Z,3.17
2022-12-25T02:40:22.297Z,3.20
2022-12-25T02:43:25.389Z,3.22
2022-12-25T02:46:13.924Z,3.22
2022-12-25T02:49:07.595Z,3.25
2022-12-25T02:51:58.117Z,3.28
2022-12-25T02:54:56.696Z,3.26
2022-12-25T02:57:49.805Z,3.28
2022-12-25T03:00:35.902Z,3.29
2022-12-25T03:03:24.840Z,3.32
2022-12-25T03:06:14.956Z,3.29
2022-12-25T03:08:45.215Z,3.35
2022-12-25T03:11:31.475Z,3.34
2022-12-25T03:14:23.401Z,3.39
2022-12-25T03:16:54.765Z,3.42
2022-12-25T03:19:44.509Z,3.47
2022-12-25T03:22:35.498Z,3.50
2022-12-25T03:25:21.942Z,3.48
2022-12-25T03:27:53.454Z,3.45
2022-12-25T03:30:40.717Z,3.39
2022-12-25T03:33:43.991Z,3.43
2022-12-25T03:36:40.178Z,3.42
2022-12-25T03:39:37.477Z,3.40
2022-12-25T03:42:25.572Z,3.36
2022-12-25T03:45:30.657Z,3.36
2022-12-25T03:48:10.323Z,3.33
2022-12-25T03:51:22.733Z,3.32
2022-12-25T03:54:15.689Z,3.34
2022-12-25T03:57:02.730Z,3.32
2022-12-25T03:59:48.504Z,3.31
2022-12-25T04:02:34.196Z,3.31
2022-12-25T04:05:19.908Z,3.36
2022-12-25T04:08:05.388Z,3.35
2022-12-25T04:10:51.068Z,3.41
2022-12-25T04:13:36.756Z,3.42
2022-12-25T04:16:22.537Z,3.37
2022-12-25T04:19:08.022Z,3.44
2022-12-25T04:21:53.821Z,3.42
2022-12-25T04:24:39.258Z,3.42
2022-12-25T04:27:24.946Z,3.36
2022-12-25T04:30:10.866Z,3.42
2022-12-25T04:32:56.436Z,3.39
2022-12-25T04:35:42.202Z,3.40
2022-12-25T04:38:09.309Z,3.40
2022-12-25T04:40:36.367Z,3.41
2022-12-25T04:43:03.498Z,3.34
2022-12-25T04:45:30.586Z,3.35
2022-12-25T04:48:00.531Z,3.42
2022-12-25T04:50:27.802Z,3.42
2022-12-25T04:52:54.862Z,3.44
2022-12-25T04:55:21.972Z,3.42
2022-12-25T04:57:49.108Z,3.40
2022-12-25T05:00:16.518Z,3.39
2022-12-25T05:02:43.775Z,3.39
2022-12-25T05:05:10.918Z,3.36
2022-12-25T05:07:38.048Z,3.38
2022-12-25T05:10:05.375Z,3.40
2022-12-25T05:12:32.434Z,3.45
2022-12-25T05:14:59.575Z,3.48
2022-12-25T05:17:26.840Z,3.51
2022-12-25T05:19:53.907Z,3.53
2022-12-25T05:22:20.976Z,3.55
2022-12-25T05:24:48.023Z,3.53
2022-12-25T05:27:15.965Z,3.59
2022-12-25T05:29:43.102Z,3.61
2022-12-25T05:32:10.318Z,3.61
2022-12-25T05:34:37.366Z,3.57
2022-12-25T05:37:04.511Z,3.66
2022-12-25T05:39:31.781Z,3.66
2022-12-25T05:41:58.862Z,3.70
2022-12-25T05:44:25.943Z,3.72
2022-12-25T05:46:53.126Z,3.72
2022-12-25T05:49:20.247Z,3.72
2022-12-25T05:51:47.417Z,3.75
2022-12-25T05:54:14.443Z,3.76
2022-12-25T05:56:41.530Z,3.77
2022-12-25T05:59:08.666Z,3.79
2022-12-25T06:01:35.939Z,3.79
2022-12-25T06:04:08.424Z,3.81
2022-12-25T06:06:39.185Z,3.83
2022-12-25T06:09:06.329Z,3.86
2022-12-25T06:11:33.491Z,3.87
2022-12-25T06:14:00.522Z,3.85
2022-12-25T06:16:30.487Z,3.86
2022-12-25T06:19:01.225Z,3.80
2022-12-25T06:21:28.360Z,3.84
2022-12-25T06:23:55.463Z,3.79
2022-12-25T06:26:22.569Z,3.82
2022-12-25T06:28:49.628Z,3.82
2022-12-25T06:31:20.408Z,3.87
2022-12-25T06:33:48.013Z,3.89
2022-12-25T06:36:18.387Z,3.92
2022-12-25T06:38:46.230Z,3.94
2022-12-25T06:41:18.362Z,3.95
2022-12-25T06:43:53.399Z,4.01
2022-12-25T06:46:21.220Z,3.99
2022-12-25T06:48:49.930Z,4.05
2022-12-25T06:51:22.560Z,4.08
2022-12-25T06:53:50.779Z,4.10
2022-12-25T06:56:20.038Z,4.13
2022-12-25T06:58:55.284Z,4.10
2022-12-25T07:01:27.055Z,4.17
2022-12-25T07:04:00.603Z,4.17
2022-12-25T07:06:27.763Z,4.21
2022-12-25T07:08:54.845Z,4.21
2022-12-25T07:11:22.478Z,4.23
2022-12-25T07:13:49.649Z,4.26
2022-12-25T07:16:17.083Z,4.28
2022-12-25T07:18:44.204Z,4.30
2022-12-25T07:21:16.871Z,4.30
2022-12-25T07:23:44.819Z,4.31
2022-12-25T07:26:13.130Z,4.32
2022-12-25T07:28:40.583Z,4.32
2022-12-25T07:31:12.996Z,4.28
2022-12-25T07:33:40.145Z,4.32
2022-12-25T07:36:08.156Z,4.33
2022-12-25T07:38:40.309Z,4.33
2022-12-25T07:41:13.181Z,4.31
2022-12-25T07:43:40.472Z,4.35
2022-12-25T07:46:08.049Z,4.37
2022-12-25T07:48:36.726Z,4.39
2022-12-25T07:51:06.637Z,4.37
2022-12-25T07:53:34.491Z,4.39
2022-12-25T07:56:03.987Z,4.44
2022-12-25T07:58:31.970Z,4.46
2022-12-25T08:01:06.966Z,4.44
2022-12-25T08:03:35.423Z,4.48
2022-12-25T08:06:08.183Z,4.51
2022-12-25T08:08:36.330Z,4.52
2022-12-25T08:11:04.080Z,4.54
2022-12-25T08:13:32.348Z,4.55
2022-12-25T08:16:01.492Z,4.58
2022-12-25T08:18:30.658Z,4.58
2022-12-25T08:21:03.540Z,4.58
2022-12-25T08:23:30.718Z,4.55
2022-12-25T08:26:05.157Z,4.57
2022-12-25T08:28:34.361Z,4.58
2022-12-25T08:31:25.093Z,4.60
2022-12-25T08:33:54.595Z,4.63
2022-12-25T08:36:21.664Z,4.63
2022-12-25T08:38:49.405Z,4.70
2022-12-25T08:41:17.545Z,4.74
2022-12-25T08:43:45.125Z,4.76
2022-12-25T08:46:12.411Z,4.72
2022-12-25T08:48:44.044Z,4.66
2022-12-25T08:51:16.618Z,4.74
2022-12-25T08:53:46.322Z,4.78
2022-12-25T08:56:14.194Z,4.81
2022-12-25T08:58:41.868Z,4.83
2022-12-25T09:01:09.609Z,4.86
2022-12-25T09:03:37.155Z,4.88
2022-12-25T09:06:07.694Z,4.88
2022-12-25T09:08:36.050Z,4.93
2022-12-25T09:11:04.906Z,4.95
2022-12-25T09:13:32.508Z,4.96
2022-12-25T09:16:00.035Z,4.97
2022-12-25T09:18:27.149Z,5.01
2022-12-25T09:21:02.150Z,5.05
2022-12-25T09:23:30.191Z,5.07
2022-12-25T09:26:02.296Z,5.09
2022-12-25T09:28:29.790Z,5.11
2022-12-25T09:30:57.153Z,5.10
2022-12-25T09:33:25.009Z,5.16
2022-12-25T09:35:57.098Z,5.19
2022-12-25T09:38:25.168Z,5.22
2022-12-25T09:41:05.387Z,5.24
2022-12-25T09:43:39.485Z,5.26
2022-12-25T09:46:11.271Z,5.27
2022-12-25T09:48:46.156Z,5.30
2022-12-25T09:51:17.614Z,5.32
2022-12-25T09:53:58.815Z,5.34
2022-12-25T09:56:26.680Z,5.38
2022-12-25T09:58:54.480Z,5.40
2022-12-25T10:01:46.215Z,5.42
2022-12-25T10:04:13.293Z,5.43
2022-12-25T10:06:43.274Z,5.45
2022-12-25T10:09:20.652Z,5.46
2022-12-25T10:12:09.214Z,5.46
2022-12-25T10:15:13.360Z,5.48
2022-12-25T10:17:58.174Z,5.50
2022-12-25T10:20:37.090Z,5.51
2022-12-25T10:23:12.372Z,5.53
2022-12-25T10:25:40.845Z,5.54
2022-12-25T10:28:38.941Z,5.55
2022-12-25T10:31:16.673Z,5.55
2022-12-25T10:33:44.322Z,5.54
2022-12-25T10:36:11.598Z,5.51
2022-12-25T10:38:38.704Z,5.54
2022-12-25T10:41:42.858Z,5.51
2022-12-25T10:44:15.968Z,5.46
2022-12-25T10:46:49.398Z,5.47
2022-12-25T10:49:19.779Z,5.42
2022-12-25T10:51:46.790Z,5.45
2022-12-25T10:54:21.713Z,5.47
2022-12-25T10:57:01.163Z,5.49
2022-12-25T10:59:35.678Z,5.48
2022-12-25T11:02:23.902Z,5.46
2022-12-25T11:04:58.216Z,5.40
2022-12-25T11:07:26.744Z,5.41
2022-12-25T11:10:05.070Z,5.37
2022-12-25T11:12:42.203Z,5.41
2022-12-25T11:15:32.960Z,5.40
2022-12-25T11:18:00.118Z,5.40
2022-12-25T11:20:27.505Z,5.39
2022-12-25T11:22:55.046Z,5.37
2022-12-25T11:25:24.903Z,5.40
2022-12-25T11:28:00.917Z,5.40
2022-12-25T11:30:31.195Z,5.40
2022-12-25T11:33:11.031Z,5.39
2022-12-25T11:35:50.637Z,5.41
2022-12-25T11:38:17.712Z,5.40
2022-12-25T11:40:46.409Z,5.43
2022-12-25T11:43:23.583Z,5.43
2022-12-25T11:46:14.328Z,5.45
2022-12-25T11:48:47.500Z,5.42
2022-12-25T11:51:16.511Z,5.45
2022-12-25T11:53:59.388Z,5.45
2022-12-25T11:56:29.479Z,5.48
2022-12-25T11:59:18.490Z,5.47
2022-12-25T12:01:57.380Z,5.47
2022-12-25T12:04:32.671Z,5.46
2022-12-25T12:07:12.407Z,5.41
2022-12-25T12:10:03.225Z,5.47
2022-12-25T12:12:35.108Z,5.47
2022-12-25T12:15:18.608Z,5.48
2022-12-25T12:17:45.761Z,5.49
2022-12-25T12:20:29.789Z,5.45
2022-12-25T12:22:58.102Z,5.44
2022-12-25T12:25:25.798Z,5.46
2022-12-25T12:28:05.196Z,5.44
2022-12-25T12:30:35.801Z,5.43
2022-12-25T12:33:06.526Z,5.45
2022-12-25T12:35:38.128Z,5.39
2022-12-25T12:38:15.827Z,5.45
2022-12-25T12:40:52.621Z,5.43
2022-12-25T12:43:47.509Z,5.40
2022-12-25T12:46:17.296Z,5.40
2022-12-25T12:48:48.008Z,5.38
2022-12-25T12:51:36.077Z,5.39
2022-12-25T12:54:06.285Z,5.40
2022-12-25T12:56:33.199Z,5.38
2022-12-25T12:59:00.348Z,5.40
2022-12-25T13:01:27.592Z,5.41
2022-12-25T13:04:01.185Z,5.41
2022-12-25T13:06:54.528Z,5.39
2022-12-25T13:09:55.620Z,5.38
2022-12-25T13:12:23.824Z,5.37
2022-12-25T13:14:51.304Z,5.40
2022-12-25T13:17:25.032Z,5.39
2022-12-25T13:19:57.309Z,5.40
2022-12-25T13:22:36.393Z,5.39
2022-12-25T13:25:09.026Z,5.40
2022-12-25T13:27:36.288Z,5.34
2022-12-25T13:30:19.300Z,5.38
2022-12-25T13:32:46.677Z,5.39
2022-12-25T13:35:15.827Z,5.39
2022-12-25T13:37:44.252Z,5.32
2022-12-25T13:40:29.585Z,5.38
2022-12-25T13:43:01.382Z,5.40
2022-12-25T13:45:31.057Z,5.36
2022-12-25T13:47:58.850Z,5.40
2022-12-25T13:50:27.209Z,5.40
2022-12-25T13:52:56.898Z,5.41
2022-12-25T13:55:23.939Z,5.39
2022-12-25T13:57:54.773Z,5.40
2022-12-25T14:00:46.050Z,5.39
2022-12-25T14:03:23.346Z,5.37
2022-12-25T14:06:02.396Z,5.31
2022-12-25T14:08:34.822Z,5.36
2022-12-25T14:11:04.861Z,5.33
2022-12-25T14:13:35.956Z,5.31
2022-12-25T14:16:03.660Z,5.29
2022-12-25T14:18:31.349Z,5.30
2022-12-25T14:21:01.356Z,5.27
2022-12-25T14:23:41.651Z,5.26
2022-12-25T14:26:20.282Z,5.23
2022-12-25T14:28:58.341Z,5.22
2022-12-25T14:31:29.099Z,5.20
2022-12-25T14:33:56.303Z,5.19
2022-12-25T14:36:23.510Z,5.16
2022-12-25T14:39:03.041Z,5.14
2022-12-25T14:41:42.114Z,5.14
2022-12-25T14:44:33.798Z,5.13
2022-12-25T14:47:18.992Z,5.10
2022-12-25T14:49:47.144Z,5.12
2022-12-25T14:52:19.839Z,5.11
2022-12-25T14:55:00.062Z,5.11
2022-12-25T14:57:31.283Z,5.06
2022-12-25T15:00:01.520Z,5.08
2022-12-25T15:02:40.125Z,5.10
2022-12-25T15:05:27.344Z,5.07
2022-12-25T15:08:12.386Z,5.09
2022-12-25T15:13:29.650Z,5.04
2022-12-25T15:16:17.097Z,5.04
2022-12-25T15:18:46.869Z,5.06
2022-12-25T15:21:21.951Z,5.02
2022-12-25T15:23:49.126Z,5.04
2022-12-25T15:26:16.392Z,5.04
2022-12-25T15:28:43.472Z,5.05
2022-12-25T15:31:33.930Z,5.04
2022-12-25T15:34:05.885Z,5.04
2022-12-25T15:36:34.367Z,5.03
2022-12-25T15:39:01.706Z,5.03
2022-12-25T15:41:55.321Z,5.02
2022-12-25T15:44:23.669Z,4.98
2022-12-25T15:46:51.346Z,4.99
2022-12-25T15:49:18.894Z,4.97
2022-12-25T15:51:46.779Z,4.96
2022-12-25T15:54:13.901Z,4.98
2022-12-25T15:56:45.233Z,4.82
2022-12-25T15:59:13.789Z,4.98
2022-12-25T16:01:48.031Z,4.98
2022-12-25T16:04:15.194Z,4.94
2022-12-25T16:06:42.501Z,4.98
2022-12-25T16:09:13.736Z,4.98
2022-12-25T16:11:41.226Z,4.94
2022-12-25T16:14:08.822Z,4.97
2022-12-25T16:16:36.710Z,4.99
2022-12-25T16:19:04.377Z,4.95
2022-12-25T16:21:43.888Z,4.97
2022-12-25T16:24:11.483Z,4.94
2022-12-25T16:26:38.582Z,4.93
2022-12-25T16:29:07.426Z,4.96
2022-12-25T16:31:35.518Z,4.97
2022-12-25T16:34:03.721Z,4.90
2022-12-25T16:36:31.039Z,4.96
2022-12-25T16:38:58.238Z,4.96
2022-12-25T16:41:25.278Z,4.97
2022-12-25T16:43:52.405Z,4.97
2022-12-25T16:46:22.491Z,4.96
2022-12-25T16:48:49.814Z,4.98
2022-12-25T16:51:21.579Z,4.98
2022-12-25T16:53:48.703Z,4.97
2022-12-25T16:56:18.425Z,4.99
2022-12-25T16:58:47.141Z,4.99
2022-12-25T17:01:17.249Z,4.99
2022-12-25T17:03:44.689Z,4.98
2022-12-25T17:06:15.516Z,5.00
2022-12-25T17:08:43.255Z,5.02
2022-12-25T17:11:11.121Z,5.00
2022-12-25T17:13:38.332Z,4.96
2022-12-25T17:16:17.417Z,4.94
2022-12-25T17:18:45.372Z,4.99
2022-12-25T17:21:14.791Z,4.97
2022-12-25T17:23:42.125Z,5.00
2022-12-25T17:26:09.268Z,5.00
2022-12-25T17:28:36.707Z,4.99
2022-12-25T17:31:05.793Z,4.99
2022-12-25T17:33:36.062Z,4.98
2022-12-25T17:36:04.442Z,4.96
2022-12-25T17:38:32.988Z,4.96
2022-12-25T17:41:01.842Z,4.94
2022-12-25T17:43:29.232Z,4.94
2022-12-25T17:45:56.441Z,4.95
2022-12-25T17:48:23.532Z,4.96
2022-12-25T17:50:50.595Z,4.97
2022-12-25T17:53:17.767Z,4.98
2022-12-25T17:55:44.859Z,5.00
2022-12-25T17:58:12.009Z,4.99
2022-12-25T18:00:39.274Z,5.00
2022-12-25T18:03:11.675Z,5.01
2022-12-25T18:05:39.106Z,5.00
2022-12-25T18:08:06.221Z,5.00
2022-12-25T18:10:40.911Z,4.99
2022-12-25T18:13:08.758Z,5.03
2022-12-25T18:15:42.101Z,5.02
2022-12-25T18:18:10.112Z,5.04
2022-12-25T18:20:40.129Z,5.05
2022-12-25T18:23:08.605Z,5.06
2022-12-25T18:25:41.393Z,5.04
2022-12-25T18:28:09.363Z,5.06
2022-12-25T18:30:41.281Z,5.09
2022-12-25T18:33:09.014Z,5.08
2022-12-25T18:35:39.797Z,5.09
2022-12-25T18:38:09.392Z,5.04
2022-12-25T18:40:44.648Z,5.09
2022-12-25T18:43:12.953Z,5.07
2022-12-25T18:45:40.221Z,5.10
2022-12-25T18:48:08.637Z,5.10
2022-12-25T18:50:38.387Z,5.10
2022-12-25T18:53:06.526Z,5.09
2022-12-25T18:55:33.616Z,4.82
2022-12-25T18:58:00.820Z,5.09
2022-12-25T19:00:28.265Z,5.09
2022-12-25T19:02:59.375Z,5.05
2022-12-25T19:05:26.788Z,5.07
2022-12-25T19:07:54.046Z,5.10
2022-12-25T19:10:21.198Z,5.10
2022-12-25T19:12:48.426Z,5.09
2022-12-25T19:15:15.683Z,5.09
2022-12-25T19:17:42.773Z,5.08
2022-12-25T19:20:10.418Z,5.12
2022-12-25T19:22:37.570Z,5.11
2022-12-25T19:25:05.139Z,5.13
2022-12-25T19:27:32.208Z,5.13
2022-12-25T19:29:59.349Z,5.14
2022-12-25T19:32:26.416Z,5.14
2022-12-25T19:34:53.493Z,5.15
2022-12-25T19:37:20.632Z,5.15
2022-12-25T19:39:47.883Z,5.13
2022-12-25T19:42:16.720Z,5.18
2022-12-25T19:44:43.955Z,5.16
2022-12-25T19:47:11.365Z,5.20
2022-12-25T19:49:40.679Z,5.15
2022-12-25T19:52:08.398Z,5.17
2022-12-25T19:54:35.566Z,5.19
2022-12-25T19:57:02.630Z,5.20
2022-12-25T19:59:29.756Z,5.22
2022-12-25T20:01:56.945Z,5.24
2022-12-25T20:04:24.163Z,5.25
2022-12-25T20:06:51.279Z,5.27
2022-12-25T20:09:21.433Z,5.27
2022-12-25T20:11:49.332Z,5.27
2022-12-25T20:14:17.752Z,5.29
2022-12-25T20:16:45.249Z,5.29
2022-12-25T20:19:13.418Z,5.29
2022-12-25T20:21:40.898Z,5.25
2022-12-25T20:24:10.355Z,5.17
2022-12-25T20:26:39.079Z,5.32
2022-12-25T20:29:06.818Z,5.33
2022-12-25T20:31:35.113Z,5.32
2022-12-25T20:34:07.805Z,5.33
2022-12-25T20:36:37.618Z,5.32
2022-12-25T20:39:10.001Z,5.32
2022-12-25T20:41:38.306Z,5.30
2022-12-25T20:44:06.829Z,5.37
2022-12-25T20:46:34.168Z,5.37
2022-12-25T20:49:02.215Z,5.31
2022-12-25T20:51:29.323Z,5.38
2022-12-25T20:53:57.928Z,5.38
2022-12-25T20:56:26.765Z,5.37
2022-12-25T20:58:55.868Z,5.37
2022-12-25T21:01:23.353Z,5.37
2022-12-25T21:03:50.684Z,5.32
2022-12-25T21:06:17.837Z,5.31
2022-12-25T21:08:45.054Z,5.36
2022-12-25T21:11:13.287Z,5.34
2022-12-25T21:13:42.742Z,5.34
2022-12-25T21:16:13.510Z,5.32
2022-12-25T21:18:40.927Z,5.30
2022-12-25T21:21:08.673Z,5.31
2022-12-25T21:23:38.112Z,5.28
2022-12-25T21:26:13.083Z,5.29
2022-12-25T21:28:40.447Z,5.26
2022-12-25T21:31:08.676Z,5.27
2022-12-25T21:33:54.670Z,5.25
2022-12-25T21:36:34.439Z,5.25
2022-12-25T21:39:05.937Z,5.22
2022-12-25T21:41:34.839Z,5.24
2022-12-25T21:44:02.919Z,5.25
2022-12-25T21:46:30.375Z,5.23
2022-12-25T21:48:58.666Z,5.23
2022-12-25T21:51:50.117Z,5.25
2022-12-25T21:54:18.272Z,5.23
2022-12-25T21:56:47.405Z,5.23
2022-12-25T21:59:21.273Z,5.18
2022-12-25T22:01:49.988Z,5.22
2022-12-25T22:04:18.845Z,5.23
2022-12-25T22:07:04.955Z,5.21
2022-12-25T22:09:32.323Z,5.18
2022-12-25T22:12:18.138Z,5.20
2022-12-25T22:14:56.228Z,5.17
2022-12-25T22:17:51.998Z,5.17
2022-12-25T22:20:34.898Z,5.12
2022-12-25T22:23:02.567Z,5.14
2022-12-25T22:25:30.001Z,5.14
2022-12-25T22:27:57.821Z,5.13
2022-12-25T22:30:27.699Z,5.13
2022-12-25T22:32:55.460Z,5.11
2022-12-25T22:35:23.128Z,5.09
2022-12-25T22:37:50.745Z,5.15
2022-12-25T22:40:19.738Z,5.14
2022-12-25T22:42:47.484Z,5.15
2022-12-25T22:45:15.099Z,5.14
2022-12-25T22:47:42.240Z,5.17
2022-12-25T22:50:10.943Z,5.11
2022-12-25T22:52:38.765Z,5.18
2022-12-25T22:55:07.921Z,5.19
2022-12-25T22:57:35.739Z,5.14
2022-12-25T23:00:03.788Z,5.17
2022-12-25T23:02:31.162Z,5.17
2022-12-25T23:04:58.386Z,5.17
2022-12-25T23:07:25.512Z,5.10
2022-12-25T23:09:52.513Z,5.15
2022-12-25T23:12:38.230Z,5.16
2022-12-25T23:15:05.881Z,5.15
2022-12-25T23:17:51.254Z,5.16
2022-12-25T23:20:37.083Z,5.15
2022-12-25T23:23:22.567Z,5.15
2022-12-25T23:26:07.747Z,5.14
2022-12-25T23:28:55.720Z,5.15
2022-12-25T23:31:32.300Z,5.07
2022-12-25T23:34:00.334Z,5.11
2022-12-25T23:36:27.719Z,5.12
2022-12-25T23:38:54.831Z,5.07
2022-12-25T23:41:22.485Z,5.12
2022-12-25T23:43:49.723Z,5.14
2022-12-25T23:46:17.127Z,5.13
2022-12-25T23:48:44.304Z,5.13
2022-12-25T23:51:11.463Z,5.15
2022-12-25T23:53:38.560Z,5.13
2022-12-25T23:56:05.896Z,5.14
2022-12-25T23:58:33.850Z,5.15
